« Back
NWS Peachtree City, Ga » Text Product » CSG Terminal Aerodrome Forecast


Printer-friendly Version
Current Version              Previous Versions:   1  2  3  4  5  6  7  8  9  

Terminal Aerodrome Forecast

580
FTUS42 KFFC 272300
TAFCSG
TAF
KCSG 272320Z 2800/2824 06004KT P6SM FEW060
     FM280100 00000KT P6SM SKC
     FM281800 21005KT P6SM FEW060=

USA.gov is the U.S. government's official web portal to all federal, state and local government web resources and services.